Time;durP1;ratioP1;P1;durP2;ratioP2;P2;SDS_P1;SDS_P2;PMS_P1;PMS_P2;Temp;Humidity;BMP_temperature;BMP_pressure;BME280_temperature;BME280_humidity;BME280_pressure;Samples;Min_cycle;Max_cycle;Signal;HPM_P1;HPM_P2
2021/10/26 00:00:20;;;;;;;11.88;6.97;;;11.40;99.90;;;;;;5030320;28;20040;-80
2021/10/26 00:02:46;;;;;;;11.00;6.97;;;11.40;99.90;;;;;;5030100;28;20088;-82
2021/10/26 00:05:11;;;;;;;13.02;7.30;;;11.40;99.90;;;;;;5013572;28;20120;-82
2021/10/26 00:07:37;;;;;;;11.95;6.80;;;11.40;99.90;;;;;;5014922;28;20040;-82
2021/10/26 00:10:07;;;;;;;12.90;7.22;;;11.40;99.90;;;;;;5030302;28;20485;-81
2021/10/26 00:12:33;;;;;;;12.85;6.85;;;11.40;99.90;;;;;;5013709;28;20595;-82
2021/10/26 00:14:59;;;;;;;11.85;6.43;;;11.40;99.90;;;;;;5014011;28;20068;-82
2021/10/26 00:17:25;;;;;;;11.30;6.30;;;11.50;99.90;;;;;;5013354;28;20467;-82
2021/10/26 00:19:51;;;;;;;12.15;6.88;;;11.50;99.90;;;;;;5014008;28;20463;-82
2021/10/26 00:22:17;;;;;;;14.55;6.90;;;11.50;99.90;;;;;;5013574;28;20036;-83
2021/10/26 00:24:43;;;;;;;12.57;6.15;;;11.50;99.90;;;;;;5013790;28;20042;-79
2021/10/26 00:27:09;;;;;;;11.50;6.18;;;11.50;99.90;;;;;;5012986;28;20065;-82
2021/10/26 00:29:35;;;;;;;12.05;6.00;;;11.50;99.90;;;;;;5013441;28;20022;-79
2021/10/26 00:32:02;;;;;;;13.13;6.72;;;11.50;99.90;;;;;;5014563;28;20418;-78
2021/10/26 00:34:27;;;;;;;12.40;6.68;;;11.50;99.90;;;;;;5014062;28;20407;-79
2021/10/26 00:36:54;;;;;;;9.50;6.05;;;11.60;99.90;;;;;;5013303;28;20144;-79
2021/10/26 00:39:20;;;;;;;12.40;6.50;;;11.60;99.90;;;;;;5013423;28;20041;-79
2021/10/26 00:41:46;;;;;;;12.98;6.50;;;11.60;99.90;;;;;;5013343;28;20030;-79
2021/10/26 00:44:12;;;;;;;10.63;6.20;;;11.60;99.90;;;;;;5014045;28;20037;-85
2021/10/26 00:46:38;;;;;;;14.00;7.70;;;11.60;99.90;;;;;;5013522;28;20059;-80
2021/10/26 00:49:09;;;;;;;14.32;7.00;;;11.60;99.90;;;;;;5014376;28;20080;-78
2021/10/26 00:51:36;;;;;;;10.18;6.68;;;11.60;99.90;;;;;;5030245;28;20077;-79
2021/10/26 00:54:04;;;;;;;11.85;6.65;;;11.60;99.90;;;;;;5013854;28;20062;-78
2021/10/26 00:56:32;;;;;;;13.15;6.53;;;11.60;99.90;;;;;;5012724;28;20041;-79
2021/10/26 00:58:58;;;;;;;10.95;6.10;;;11.60;99.90;;;;;;5029554;28;20483;-79
2021/10/26 01:01:24;;;;;;;10.00;6.18;;;11.60;99.90;;;;;;5014303;28;20104;-80
2021/10/26 01:03:50;;;;;;;11.15;6.32;;;11.60;99.90;;;;;;5013446;28;20061;-79
2021/10/26 01:06:16;;;;;;;10.85;6.50;;;11.70;99.90;;;;;;5013640;28;20061;-83
2021/10/26 01:08:43;;;;;;;12.68;6.53;;;11.70;99.90;;;;;;5014137;28;20030;-82
2021/10/26 01:11:08;;;;;;;11.75;6.38;;;11.70;99.90;;;;;;5013680;28;20045;-83
2021/10/26 01:13:34;;;;;;;13.20;6.85;;;11.70;99.90;;;;;;5012713;28;20156;-82
2021/10/26 01:16:01;;;;;;;11.32;6.45;;;11.70;99.90;;;;;;5014770;28;20081;-83
2021/10/26 01:18:27;;;;;;;9.57;5.95;;;11.70;99.90;;;;;;5029201;28;20022;-82
2021/10/26 01:20:55;;;;;;;9.43;6.18;;;11.60;99.90;;;;;;5013366;28;20368;-81
2021/10/26 01:23:22;;;;;;;12.55;6.55;;;11.60;99.90;;;;;;5013347;28;20057;-82
2021/10/26 01:25:48;;;;;;;9.57;6.75;;;11.60;99.90;;;;;;5013767;28;20029;-81
2021/10/26 01:28:14;;;;;;;13.85;7.50;;;11.60;99.90;;;;;;5015121;28;20045;-85
2021/10/26 01:30:41;;;;;;;12.68;6.68;;;11.60;99.90;;;;;;5016742;28;20032;-83
2021/10/26 01:33:07;;;;;;;10.65;6.05;;;11.60;99.90;;;;;;5017847;28;20022;-83
2021/10/26 01:35:34;;;;;;;11.43;6.82;;;11.50;99.90;;;;;;5016822;28;20025;-83
2021/10/26 01:38:00;;;;;;;9.82;6.55;;;11.50;99.90;;;;;;5018224;28;20513;-83
2021/10/26 01:40:26;;;;;;;11.95;6.53;;;11.50;99.90;;;;;;5017434;28;20076;-83
2021/10/26 01:42:52;;;;;;;14.10;6.50;;;11.50;99.90;;;;;;5016916;28;20079;-83
2021/10/26 01:45:18;;;;;;;12.30;6.95;;;11.60;99.90;;;;;;5017075;28;20108;-83
2021/10/26 01:47:44;;;;;;;13.00;6.60;;;11.50;99.90;;;;;;5017275;28;20033;-83
2021/10/26 01:50:16;;;;;;;11.15;6.85;;;11.60;99.90;;;;;;5016493;28;20037;-83
2021/10/26 01:52:42;;;;;;;13.00;7.63;;;11.60;99.90;;;;;;5016679;28;20550;-82
2021/10/26 01:55:09;;;;;;;12.60;6.40;;;11.50;99.90;;;;;;5016317;28;20349;-82
2021/10/26 01:57:36;;;;;;;11.23;6.78;;;11.50;99.90;;;;;;5015622;28;20053;-84
2021/10/26 02:00:06;;;;;;;13.13;6.50;;;11.50;99.90;;;;;;5017941;28;20025;-82
2021/10/26 02:02:32;;;;;;;13.02;6.70;;;11.50;99.90;;;;;;5017231;28;20053;-82
2021/10/26 02:04:58;;;;;;;11.63;6.55;;;11.50;99.90;;;;;;5016522;28;20068;-81
2021/10/26 02:07:23;;;;;;;11.32;6.60;;;11.50;99.90;;;;;;5032467;28;20489;-82
2021/10/26 02:09:49;;;;;;;12.70;6.35;;;11.50;99.90;;;;;;5033153;28;20125;-81
2021/10/26 02:12:15;;;;;;;9.73;6.15;;;11.50;99.90;;;;;;5032334;28;20030;-84
2021/10/26 02:14:41;;;;;;;11.45;6.03;;;11.50;99.90;;;;;;5016789;28;20030;-84
2021/10/26 02:17:07;;;;;;;11.55;6.53;;;11.50;99.90;;;;;;5032560;28;20064;-83
2021/10/26 02:19:32;;;;;;;11.65;6.93;;;11.50;99.90;;;;;;5032118;28;20030;-84
2021/10/26 02:21:58;;;;;;;11.45;6.15;;;11.50;99.90;;;;;;5032766;28;20121;-84
2021/10/26 02:24:24;;;;;;;12.20;6.72;;;11.50;99.90;;;;;;5032059;28;20037;-83
2021/10/26 02:26:50;;;;;;;8.65;5.72;;;11.50;99.90;;;;;;5032217;28;20045;-84
2021/10/26 02:29:17;;;;;;;11.48;6.45;;;11.50;99.90;;;;;;5032813;28;20593;-84
2021/10/26 02:31:43;;;;;;;14.13;7.03;;;11.50;99.90;;;;;;5032433;28;20025;-81
2021/10/26 02:34:09;;;;;;;13.75;6.47;;;11.50;99.90;;;;;;5032716;28;20494;-81
2021/10/26 02:36:35;;;;;;;13.00;6.65;;;11.50;99.90;;;;;;5016145;28;20033;-83
2021/10/26 02:39:02;;;;;;;12.38;5.97;;;11.50;99.90;;;;;;5017178;28;20030;-83
2021/10/26 02:41:28;;;;;;;11.95;6.50;;;11.60;99.90;;;;;;5031573;28;20061;-82
2021/10/26 02:43:53;;;;;;;11.68;6.50;;;11.60;99.90;;;;;;5017005;28;20506;-83
2021/10/26 02:46:19;;;;;;;11.40;5.60;;;11.60;99.90;;;;;;5016550;28;20069;-85
2021/10/26 02:48:47;;;;;;;13.10;6.93;;;11.60;99.90;;;;;;5028805;28;20033;-83
2021/10/26 02:51:14;;;;;;;11.73;6.53;;;11.70;99.90;;;;;;5015222;28;20073;-83
2021/10/26 02:53:40;;;;;;;12.55;6.35;;;11.60;99.90;;;;;;5015213;28;20029;-82
2021/10/26 02:56:05;;;;;;;15.63;6.43;;;11.70;99.90;;;;;;5015538;28;20034;-81
2021/10/26 02:58:31;;;;;;;12.73;6.88;;;11.70;99.90;;;;;;5014520;28;20093;-81
2021/10/26 03:00:57;;;;;;;14.23;6.65;;;11.60;99.90;;;;;;5015468;28;20364;-81
2021/10/26 03:03:22;;;;;;;10.93;6.40;;;11.70;99.90;;;;;;5014861;28;20451;-81
2021/10/26 03:05:48;;;;;;;12.85;6.13;;;11.70;99.90;;;;;;5031570;28;20030;-81
2021/10/26 03:08:15;;;;;;;11.32;6.53;;;11.70;99.90;;;;;;5032162;28;20093;-81
2021/10/26 03:10:41;;;;;;;11.40;6.43;;;11.70;99.90;;;;;;5015066;28;20033;-79
2021/10/26 03:13:07;;;;;;;11.02;6.55;;;11.70;99.90;;;;;;5015863;28;20045;-80
2021/10/26 03:15:32;;;;;;;12.13;6.15;;;11.70;99.90;;;;;;5014680;28;20022;-83
2021/10/26 03:17:58;;;;;;;10.82;6.20;;;11.70;99.90;;;;;;5031716;28;20022;-83
2021/10/26 03:20:24;;;;;;;12.90;6.25;;;11.70;99.90;;;;;;5015825;28;20099;-81
2021/10/26 03:22:50;;;;;;;10.18;6.05;;;11.70;99.90;;;;;;5016005;28;20034;-81
2021/10/26 03:25:16;;;;;;;11.32;6.03;;;11.70;99.90;;;;;;5031364;28;20128;-80
2021/10/26 03:27:42;;;;;;;9.68;6.03;;;11.70;99.90;;;;;;5030707;28;20388;-81
2021/10/26 03:30:09;;;;;;;10.00;5.88;;;11.70;99.90;;;;;;5031178;28;20030;-81
2021/10/26 03:32:35;;;;;;;10.98;6.30;;;11.70;99.90;;;;;;5014984;28;20030;-81
2021/10/26 03:35:01;;;;;;;12.35;5.78;;;11.70;99.90;;;;;;5031060;28;20041;-82
2021/10/26 03:37:27;;;;;;;12.07;6.03;;;11.70;99.90;;;;;;5029807;28;20026;-82
2021/10/26 03:39:56;;;;;;;9.70;5.80;;;11.70;99.90;;;;;;5030677;28;20025;-83
2021/10/26 03:42:25;;;;;;;10.77;6.00;;;11.70;99.90;;;;;;5030078;28;20034;-84
2021/10/26 03:44:52;;;;;;;11.40;5.95;;;11.60;99.90;;;;;;5031207;28;20055;-82
2021/10/26 03:47:18;;;;;;;11.85;5.80;;;11.70;99.90;;;;;;5015323;28;20037;-81
2021/10/26 03:49:44;;;;;;;11.75;6.28;;;11.60;99.90;;;;;;5015623;28;20033;-81
2021/10/26 03:52:10;;;;;;;10.15;6.20;;;11.60;99.90;;;;;;5030549;28;20117;-82
2021/10/26 03:54:37;;;;;;;8.73;5.35;;;11.60;99.90;;;;;;5030426;28;20041;-82
2021/10/26 03:57:07;;;;;;;11.18;5.45;;;11.60;99.90;;;;;;5015016;28;20046;-82
2021/10/26 03:59:33;;;;;;;11.82;5.97;;;11.60;99.90;;;;;;5030292;28;20037;-82
2021/10/26 04:02:02;;;;;;;9.93;5.28;;;11.60;99.90;;;;;;5030473;28;20535;-81
2021/10/26 04:04:28;;;;;;;9.57;5.40;;;11.50;99.90;;;;;;5013693;28;20026;-82
2021/10/26 04:06:53;;;;;;;12.07;5.78;;;11.50;99.90;;;;;;5030676;28;20057;-82
2021/10/26 04:09:30;;;;;;;9.88;6.00;;;11.50;99.90;;;;;;5015373;28;20029;-82
2021/10/26 04:12:17;;;;;;;14.32;5.78;;;11.50;99.90;;;;;;5030923;28;20022;-82
2021/10/26 04:14:42;;;;;;;11.07;5.50;;;11.50;99.90;;;;;;5014008;28;20546;-81
2021/10/26 04:17:08;;;;;;;9.65;5.25;;;11.50;99.90;;;;;;5030422;28;20383;-81
2021/10/26 04:19:34;;;;;;;11.27;5.75;;;11.50;99.90;;;;;;5030409;28;20036;-81
2021/10/26 04:21:59;;;;;;;8.32;5.20;;;11.60;99.90;;;;;;5029888;28;20018;-81
2021/10/26 04:24:25;;;;;;;10.98;5.68;;;11.60;99.90;;;;;;5029470;28;20026;-81
2021/10/26 04:26:51;;;;;;;9.75;5.50;;;11.60;99.90;;;;;;5030124;28;20076;-81
2021/10/26 04:29:16;;;;;;;10.93;5.50;;;11.60;99.90;;;;;;5014711;28;20021;-81
2021/10/26 04:31:42;;;;;;;11.82;5.28;;;11.60;99.90;;;;;;5029748;28;20022;-82
2021/10/26 04:34:08;;;;;;;11.38;5.72;;;11.60;99.90;;;;;;5014693;28;20025;-82
2021/10/26 04:36:33;;;;;;;12.40;5.10;;;11.50;99.90;;;;;;5029416;28;20080;-81
2021/10/26 04:38:59;;;;;;;9.85;6.03;;;11.50;99.90;;;;;;5030035;28;20050;-82
2021/10/26 04:41:24;;;;;;;9.27;4.82;;;11.50;99.90;;;;;;5029549;28;20025;-82
2021/10/26 04:43:50;;;;;;;11.20;5.88;;;11.50;99.90;;;;;;5030133;28;20026;-81
2021/10/26 04:46:16;;;;;;;14.20;5.93;;;11.50;99.90;;;;;;5029870;28;20022;-81
2021/10/26 04:48:42;;;;;;;10.32;5.18;;;11.50;99.90;;;;;;5013798;28;20227;-81
2021/10/26 04:51:07;;;;;;;10.68;5.15;;;11.50;99.90;;;;;;5029246;28;20022;-83
2021/10/26 04:53:33;;;;;;;9.73;5.15;;;11.50;99.90;;;;;;5012903;28;20358;-82
2021/10/26 04:56:00;;;;;;;14.00;5.90;;;11.40;99.90;;;;;;5013788;28;20030;-83
2021/10/26 04:58:25;;;;;;;9.70;4.95;;;11.50;99.90;;;;;;5013287;28;20061;-85
2021/10/26 05:00:51;;;;;;;13.77;5.45;;;11.50;99.90;;;;;;5012025;28;20021;-85
2021/10/26 05:03:17;;;;;;;10.95;5.13;;;11.50;99.90;;;;;;5013858;28;20029;-84
2021/10/26 05:05:43;;;;;;;12.13;5.10;;;11.50;99.90;;;;;;5015091;28;20030;-78
2021/10/26 05:08:08;;;;;;;10.82;5.07;;;11.50;99.90;;;;;;5016696;28;20018;-78
2021/10/26 05:10:34;;;;;;;9.77;5.10;;;11.50;99.90;;;;;;5037354;28;20056;-81
2021/10/26 05:12:59;;;;;;;8.70;5.07;;;11.60;99.90;;;;;;5026908;28;20059;-81
2021/10/26 05:15:25;;;;;;;10.27;4.90;;;11.60;99.90;;;;;;5020877;28;20022;-82
2021/10/26 05:17:52;;;;;;;12.32;5.22;;;11.50;99.90;;;;;;5015261;28;20065;-84
2021/10/26 05:20:19;;;;;;;14.07;5.20;;;11.50;99.90;;;;;;5016911;28;20014;-84
2021/10/26 05:22:45;;;;;;;9.80;5.47;;;11.50;99.90;;;;;;5015252;28;20064;-83
2021/10/26 05:25:10;;;;;;;12.93;5.05;;;11.50;99.90;;;;;;5016805;28;20072;-84
2021/10/26 05:27:38;;;;;;;10.77;4.88;;;11.40;99.90;;;;;;5031541;28;20088;-84
2021/10/26 05:30:05;;;;;;;11.77;5.13;;;11.50;99.90;;;;;;5032324;28;20462;-84
2021/10/26 05:32:32;;;;;;;11.27;5.18;;;11.50;99.90;;;;;;5015994;28;20022;-84
2021/10/26 05:34:58;;;;;;;8.70;4.63;;;11.50;99.90;;;;;;5016680;28;20038;-84
2021/10/26 05:37:24;;;;;;;9.15;4.43;;;11.50;99.90;;;;;;5015463;28;20348;-85
2021/10/26 05:39:49;;;;;;;10.55;5.38;;;11.50;99.90;;;;;;5031415;28;20144;-85
2021/10/26 05:42:15;;;;;;;10.35;4.95;;;11.50;99.90;;;;;;5014673;28;20487;-84
2021/10/26 05:44:41;;;;;;;12.07;4.95;;;11.50;99.90;;;;;;5030686;28;20079;-84
2021/10/26 05:47:06;;;;;;;9.10;5.00;;;11.50;99.90;;;;;;5016087;28;20483;-84
2021/10/26 05:49:33;;;;;;;8.80;4.80;;;11.60;99.90;;;;;;5015230;28;20029;-84
2021/10/26 05:51:59;;;;;;;10.00;4.72;;;11.50;99.90;;;;;;5014918;28;20032;-84
2021/10/26 05:54:24;;;;;;;8.75;4.50;;;11.60;99.90;;;;;;5015680;28;20022;-84
2021/10/26 05:56:50;;;;;;;9.48;4.82;;;11.60;99.90;;;;;;5031205;28;20034;-84
2021/10/26 05:59:16;;;;;;;9.70;4.15;;;11.70;99.90;;;;;;5016239;28;20026;-84
2021/10/26 06:01:42;;;;;;;10.75;4.95;;;11.60;99.90;;;;;;5015516;28;20025;-84
2021/10/26 06:04:07;;;;;;;8.27;4.72;;;11.70;99.90;;;;;;5032149;28;20340;-84
2021/10/26 06:06:33;;;;;;;8.95;4.70;;;11.70;99.90;;;;;;5014821;28;20137;-84
2021/10/26 06:08:59;;;;;;;11.30;4.97;;;11.70;99.90;;;;;;5015863;28;20022;-84
2021/10/26 06:11:26;;;;;;;9.57;5.00;;;11.70;99.90;;;;;;5031673;28;20459;-84
2021/10/26 06:14:01;;;;;;;14.77;5.63;;;11.70;99.90;;;;;;5032162;28;20029;-84
2021/10/26 06:16:31;;;;;;;22.98;5.82;;;11.70;99.90;;;;;;5031988;28;20186;-82
2021/10/26 06:18:57;;;;;;;12.45;5.28;;;11.70;99.90;;;;;;5032816;28;20402;-84
2021/10/26 06:21:23;;;;;;;10.73;5.57;;;11.70;99.90;;;;;;5032673;28;20370;-84
2021/10/26 06:23:49;;;;;;;15.13;7.05;;;11.80;99.90;;;;;;5031729;28;20021;-84
2021/10/26 06:26:16;;;;;;;15.30;6.28;;;11.70;99.90;;;;;;5025986;28;20120;-85
2021/10/26 06:28:41;;;;;;;11.43;5.95;;;11.80;99.90;;;;;;5014550;28;20048;-85
2021/10/26 06:31:07;;;;;;;14.18;6.32;;;11.70;99.90;;;;;;5015062;28;20038;-85
2021/10/26 06:33:33;;;;;;;12.88;6.43;;;11.70;99.90;;;;;;5014597;28;20104;-85
2021/10/26 06:35:58;;;;;;;15.23;6.45;;;11.70;99.90;;;;;;5016261;28;20046;-85
2021/10/26 06:38:24;;;;;;;18.35;7.03;;;11.80;99.90;;;;;;5014889;28;20033;-85
2021/10/26 06:40:50;;;;;;;15.00;6.65;;;11.70;99.90;;;;;;5015328;28;20026;-85
2021/10/26 06:43:16;;;;;;;16.92;6.78;;;11.80;99.90;;;;;;5015083;28;20033;-85
2021/10/26 06:45:41;;;;;;;14.13;6.53;;;11.80;99.90;;;;;;5015593;28;20026;-85
2021/10/26 06:48:07;;;;;;;15.65;6.82;;;11.90;99.90;;;;;;5014962;28;20068;-85
2021/10/26 06:50:33;;;;;;;11.68;5.55;;;11.90;99.90;;;;;;5015404;28;20037;-84
2021/10/26 06:52:59;;;;;;;13.80;5.90;;;12.00;99.90;;;;;;5014603;28;20018;-83
2021/10/26 06:55:25;;;;;;;13.88;5.78;;;12.00;99.90;;;;;;5014545;28;20022;-84
2021/10/26 06:57:51;;;;;;;11.88;5.63;;;12.00;99.90;;;;;;5014166;28;20058;-83
2021/10/26 07:00:17;;;;;;;13.52;5.60;;;12.10;99.90;;;;;;5030124;28;20431;-83
2021/10/26 07:02:56;;;;;;;14.02;6.10;;;12.00;99.90;;;;;;5013539;28;20164;-85
2021/10/26 07:05:24;;;;;;;10.35;5.50;;;12.10;99.90;;;;;;5012192;28;20021;-83
2021/10/26 07:07:51;;;;;;;12.93;6.05;;;12.10;99.90;;;;;;5029894;28;20451;-83
2021/10/26 07:10:18;;;;;;;10.60;5.60;;;12.10;99.90;;;;;;5013360;28;20160;-83
2021/10/26 07:12:44;;;;;;;14.32;6.35;;;12.20;99.90;;;;;;5029741;28;20032;-84
2021/10/26 07:15:12;;;;;;;12.73;5.80;;;12.20;99.90;;;;;;5013142;28;20048;-82
2021/10/26 07:17:39;;;;;;;13.07;6.10;;;12.10;99.90;;;;;;5029273;28;20048;-82
2021/10/26 07:20:10;;;;;;;13.07;6.28;;;12.10;99.90;;;;;;5029616;28;20112;-84
2021/10/26 07:22:37;;;;;;;15.25;6.55;;;12.20;99.90;;;;;;5007103;28;20097;-82
2021/10/26 07:25:06;;;;;;;14.80;6.32;;;12.20;99.90;;;;;;5028518;28;20470;-83
2021/10/26 07:27:33;;;;;;;12.35;6.93;;;12.20;99.90;;;;;;5013877;28;20032;-83
2021/10/26 07:29:59;;;;;;;15.45;6.57;;;12.20;99.90;;;;;;5029943;28;20094;-82
2021/10/26 07:32:25;;;;;;;12.20;6.60;;;12.30;99.90;;;;;;5029556;28;20072;-83
2021/10/26 07:34:51;;;;;;;14.73;5.97;;;12.30;99.90;;;;;;5012826;28;20033;-83
2021/10/26 07:37:21;;;;;;;15.77;6.57;;;12.30;99.90;;;;;;5013713;28;20022;-82
2021/10/26 07:39:48;;;;;;;13.20;5.93;;;12.30;99.90;;;;;;5014637;28;20046;-83
2021/10/26 07:42:15;;;;;;;14.77;7.05;;;12.30;99.90;;;;;;5015320;28;20026;-82
2021/10/26 07:44:43;;;;;;;13.40;7.30;;;12.40;99.90;;;;;;5013359;28;20092;-82
2021/10/26 07:47:09;;;;;;;21.38;7.55;;;12.40;99.90;;;;;;5014362;28;20456;-83
2021/10/26 07:49:35;;;;;;;14.30;7.07;;;12.40;99.90;;;;;;5030250;28;20080;-82
2021/10/26 07:52:03;;;;;;;12.35;7.35;;;12.40;99.90;;;;;;5030377;28;20034;-83
2021/10/26 07:54:29;;;;;;;14.15;6.72;;;12.40;99.90;;;;;;5013601;28;20022;-86
2021/10/26 07:56:55;;;;;;;14.10;6.72;;;12.50;99.90;;;;;;5015010;28;20060;-84
2021/10/26 07:59:23;;;;;;;15.45;7.28;;;12.40;99.90;;;;;;5014120;28;20079;-83
2021/10/26 08:01:49;;;;;;;12.02;6.35;;;12.50;99.90;;;;;;5013539;28;20513;-84
2021/10/26 08:04:16;;;;;;;13.00;6.60;;;12.50;99.90;;;;;;5013659;28;20022;-84
2021/10/26 08:06:46;;;;;;;11.02;6.85;;;12.50;99.90;;;;;;5029820;28;20041;-84
2021/10/26 08:09:14;;;;;;;11.65;6.30;;;12.60;99.90;;;;;;5013804;28;20035;-83
2021/10/26 08:11:39;;;;;;;10.65;5.55;;;12.70;99.90;;;;;;5010783;28;20096;-82
2021/10/26 08:14:06;;;;;;;10.50;5.63;;;12.70;99.90;;;;;;5012772;28;20049;-83
2021/10/26 08:16:32;;;;;;;8.23;5.25;;;12.80;99.90;;;;;;5012890;28;20033;-85
2021/10/26 08:19:00;;;;;;;11.85;5.38;;;12.70;99.90;;;;;;5014802;28;20101;-83
2021/10/26 08:21:26;;;;;;;10.18;5.03;;;12.80;99.90;;;;;;5013268;28;20057;-83
2021/10/26 08:23:53;;;;;;;9.63;4.53;;;12.80;99.90;;;;;;5012607;28;20029;-82
2021/10/26 08:26:29;;;;;;;8.30;4.50;;;12.80;99.90;;;;;;5014514;28;20033;-83
2021/10/26 08:34:41;;;;;;;12.50;5.05;;;12.80;99.90;;;;;;5014055;28;20032;-83
2021/10/26 08:37:06;;;;;;;10.55;4.30;;;12.90;99.90;;;;;;5013578;28;20065;-82
2021/10/26 08:39:32;;;;;;;13.52;4.50;;;12.90;99.90;;;;;;5028926;28;20018;-84
2021/10/26 08:42:00;;;;;;;11.77;5.25;;;12.90;99.90;;;;;;5012633;28;20485;-83
2021/10/26 08:44:26;;;;;;;9.30;5.25;;;12.90;99.90;;;;;;5028738;28;20058;-84
2021/10/26 08:46:52;;;;;;;11.68;5.43;;;12.90;99.90;;;;;;5028032;28;20469;-89
2021/10/26 08:49:19;;;;;;;12.02;5.95;;;12.90;99.90;;;;;;5034440;28;20104;-89
2021/10/26 08:51:47;;;;;;;11.32;6.00;;;12.90;99.90;;;;;;5026836;28;20056;-90
2021/10/26 08:54:12;;;;;;;13.75;6.07;;;13.00;99.90;;;;;;5025011;28;20076;-89
2021/10/26 08:56:38;;;;;;;11.50;5.72;;;13.00;99.80;;;;;;5025340;28;20030;-88
2021/10/26 08:59:06;;;;;;;11.07;6.25;;;13.00;99.70;;;;;;5013107;28;20042;-89
2021/10/26 09:01:32;;;;;;;13.52;5.82;;;13.10;99.70;;;;;;5020656;28;20022;-85
2021/10/26 09:04:09;;;;;;;13.60;5.75;;;13.20;99.50;;;;;;5024298;28;20079;-90
2021/10/26 09:06:51;;;;;;;12.02;5.38;;;13.10;99.40;;;;;;5015270;28;20038;-87
2021/10/26 09:09:23;;;;;;;10.80;5.72;;;13.20;99.60;;;;;;5015091;28;20036;-90
2021/10/26 09:17:32;;;;;;;17.30;6.32;;;13.20;99.30;;;;;;5020276;28;20083;-89
2021/10/26 09:20:00;;;;;;;8.88;5.47;;;13.20;99.30;;;;;;5026299;28;20467;-89
2021/10/26 09:22:27;;;;;;;10.65;6.15;;;13.20;99.20;;;;;;5018478;28;20053;-89
2021/10/26 09:24:55;;;;;;;11.98;6.80;;;13.20;99.30;;;;;;5010897;28;20279;-93
2021/10/26 09:27:21;;;;;;;10.65;6.40;;;13.20;99.40;;;;;;5027312;28;20038;-91
2021/10/26 09:29:49;;;;;;;12.30;5.70;;;13.20;99.50;;;;;;5012434;28;20101;-90
2021/10/26 09:32:46;;;;;;;10.10;6.07;;;13.20;99.60;;;;;;5012134;28;20037;-91
2021/10/26 09:35:14;;;;;;;12.27;6.80;;;13.20;99.60;;;;;;5007302;28;20065;-88
2021/10/26 09:37:45;;;;;;;15.40;6.20;;;13.30;99.60;;;;;;5011569;28;20037;-88
2021/10/26 09:40:12;;;;;;;13.02;6.55;;;13.30;99.60;;;;;;5012345;28;20037;-90
2021/10/26 09:42:40;;;;;;;11.05;6.05;;;13.30;99.50;;;;;;5011886;28;20030;-90
2021/10/26 09:45:10;;;;;;;13.35;6.00;;;13.40;99.50;;;;;;5012475;28;20202;-90
2021/10/26 09:47:38;;;;;;;11.23;5.80;;;13.40;99.30;;;;;;5027497;28;20033;-87
2021/10/26 09:50:08;;;;;;;9.20;5.95;;;13.50;99.20;;;;;;5016277;28;20099;-91
2021/10/26 09:52:43;;;;;;;14.13;6.18;;;13.50;99.20;;;;;;4996310;28;20026;-87
2021/10/26 09:57:57;;;;;;;13.90;5.97;;;13.50;99.20;;;;;;5015555;28;20101;-93
2021/10/26 10:00:29;;;;;;;16.05;6.72;;;13.50;99.30;;;;;;5016462;28;20540;-93
2021/10/26 10:03:00;;;;;;;10.25;6.15;;;13.50;99.40;;;;;;5015831;28;20172;-89
2021/10/26 10:05:30;;;;;;;10.27;5.27;;;13.40;99.20;;;;;;5016101;28;20034;-91
2021/10/26 10:08:15;;;;;;;11.82;6.35;;;13.40;99.40;;;;;;5015290;28;20037;-89
2021/10/26 10:10:41;;;;;;;12.57;5.80;;;13.40;99.40;;;;;;5013525;28;20050;-89
2021/10/26 10:13:06;;;;;;;11.95;6.00;;;13.40;99.50;;;;;;5049569;28;20093;-91
2021/10/26 10:15:33;;;;;;;12.18;6.03;;;13.40;99.40;;;;;;5015929;28;20052;-89
2021/10/26 10:18:03;;;;;;;11.15;5.45;;;13.50;99.40;;;;;;5015723;28;20120;-91
2021/10/26 10:20:30;;;;;;;10.30;4.90;;;13.70;99.20;;;;;;5015965;28;20072;-88
2021/10/26 10:22:57;;;;;;;8.85;4.78;;;13.70;98.90;;;;;;5016390;28;20029;-89
2021/10/26 10:25:24;;;;;;;9.07;5.03;;;13.70;98.90;;;;;;5015792;28;20088;-90
2021/10/26 10:27:53;;;;;;;10.43;5.18;;;13.70;99.40;;;;;;5031344;28;20048;-90
2021/10/26 10:30:19;;;;;;;11.05;4.68;;;13.70;99.10;;;;;;5015540;28;20033;-89
2021/10/26 10:32:45;;;;;;;13.95;6.20;;;13.60;98.90;;;;;;5015191;28;20449;-88
2021/10/26 10:35:18;;;;;;;13.43;6.18;;;13.60;98.90;;;;;;5015692;28;20069;-89
2021/10/26 10:37:48;;;;;;;8.88;5.30;;;13.50;99.00;;;;;;5027883;28;20056;-93
2021/10/26 10:40:23;;;;;;;11.63;5.85;;;13.50;99.30;;;;;;5016833;28;20026;-91
2021/10/26 10:42:51;;;;;;;9.32;5.43;;;13.60;99.50;;;;;;5031259;28;20044;-92
2021/10/26 10:45:24;;;;;;;9.90;4.72;;;13.50;99.30;;;;;;5018555;28;20030;-90
2021/10/26 10:47:51;;;;;;;8.90;5.55;;;13.50;99.30;;;;;;5028719;28;20032;-86
2021/10/26 10:50:19;;;;;;;11.60;5.13;;;13.60;99.20;;;;;;5021115;28;20026;-86
2021/10/26 10:53:01;;;;;;;8.35;3.78;;;13.90;99.00;;;;;;5029951;28;20026;-83
2021/10/26 10:55:27;;;;;;;7.22;3.90;;;14.10;98.30;;;;;;5026143;28;20032;-86
2021/10/26 10:57:52;;;;;;;7.18;4.10;;;14.20;98.10;;;;;;5027305;28;20462;-86
2021/10/26 11:00:20;;;;;;;7.65;4.05;;;14.20;97.90;;;;;;5028945;28;20096;-85
2021/10/26 11:02:51;;;;;;;7.57;3.63;;;14.20;98.00;;;;;;5027919;28;20108;-85
2021/10/26 11:05:36;;;;;;;10.70;3.57;;;14.20;97.80;;;;;;5023916;28;20032;-86
2021/10/26 11:08:15;;;;;;;8.73;3.20;;;14.10;97.60;;;;;;5025950;28;20256;-90
2021/10/26 11:10:54;;;;;;;6.70;2.90;;;14.20;97.80;;;;;;5018704;28;20060;-90
2021/10/26 11:13:31;;;;;;;5.50;2.65;;;14.30;97.70;;;;;;5028374;28;20021;-87
2021/10/26 11:16:03;;;;;;;5.25;2.72;;;14.30;97.30;;;;;;5024018;28;20410;-89
2021/10/26 11:18:37;;;;;;;5.85;2.85;;;14.30;97.30;;;;;;5022032;28;20084;-90
2021/10/26 11:21:08;;;;;;;7.60;3.15;;;14.30;97.50;;;;;;5025430;28;20026;-90
2021/10/26 11:23:38;;;;;;;6.25;2.90;;;14.30;97.40;;;;;;5028488;28;20485;-85
2021/10/26 11:26:16;;;;;;;10.30;3.83;;;14.20;97.50;;;;;;5022253;28;20475;-87
2021/10/26 11:28:50;;;;;;;8.35;3.80;;;14.30;97.70;;;;;;5016956;28;20040;-88
2021/10/26 11:31:23;;;;;;;10.82;4.03;;;14.30;97.60;;;;;;5017830;28;20026;-88
2021/10/26 11:34:15;;;;;;;8.00;3.42;;;14.30;97.60;;;;;;5021593;28;20026;-90
2021/10/26 11:36:40;;;;;;;9.52;3.63;;;14.40;97.40;;;;;;5016374;28;20028;-90
2021/10/26 11:39:12;;;;;;;6.53;3.72;;;14.50;97.40;;;;;;5018745;28;20459;-90
2021/10/26 11:41:43;;;;;;;7.07;3.30;;;14.60;97.10;;;;;;5016536;28;20022;-91
2021/10/26 11:44:14;;;;;;;5.63;3.40;;;14.80;97.30;;;;;;5016174;28;20066;-92
2021/10/26 11:46:46;;;;;;;8.05;3.33;;;14.90;96.90;;;;;;5013708;28;20030;-91
2021/10/26 11:49:19;;;;;;;;;;;15.00;96.90;;;;;;5016746;28;20025;-90
2021/10/26 11:51:49;;;;;;;10.75;3.40;;;15.10;96.70;;;;;;5031276;28;20393;-90
2021/10/26 11:54:26;;;;;;;11.98;4.00;;;15.10;96.50;;;;;;5018020;28;20099;-90
2021/10/26 11:57:08;;;;;;;8.00;3.58;;;15.10;96.40;;;;;;5032742;28;20084;-91
2021/10/26 11:59:35;;;;;;;9.10;3.35;;;15.10;95.90;;;;;;5010368;28;20048;-88
2021/10/26 12:02:04;;;;;;;7.32;3.35;;;15.00;96.20;;;;;;5031300;28;20033;-90
2021/10/26 12:04:36;;;;;;;7.43;3.55;;;15.10;96.40;;;;;;5016674;28;20025;-92
2021/10/26 12:07:14;;;;;;;7.40;3.33;;;15.30;96.30;;;;;;5031398;28;20045;-90
2021/10/26 12:09:45;;;;;;;7.28;3.25;;;15.50;95.80;;;;;;5029277;28;20037;-86
2021/10/26 12:12:34;;;;;;;4.45;2.60;;;15.60;95.70;;;;;;5025730;28;20025;-86
2021/10/26 12:15:04;;;;;;;4.60;2.70;;;15.60;95.60;;;;;;5026821;28;20561;-86
2021/10/26 12:17:40;;;;;;;8.23;3.22;;;15.90;95.10;;;;;;5014892;28;20466;-85
2021/10/26 12:20:12;;;;;;;7.30;3.20;;;15.70;94.80;;;;;;5031158;28;20029;-87
2021/10/26 12:22:45;;;;;;;4.97;2.80;;;15.50;95.20;;;;;;5011808;28;20455;-85
2021/10/26 12:25:21;;;;;;;6.15;3.00;;;15.40;95.50;;;;;;5009666;28;20038;-86
2021/10/26 12:27:58;;;;;;;7.75;2.55;;;15.50;95.50;;;;;;5028497;28;20141;-87
2021/10/26 12:30:35;;;;;;;10.27;3.40;;;15.50;95.30;;;;;;5012646;28;20026;-90
2021/10/26 12:33:09;;;;;;;6.78;2.97;;;15.50;95.30;;;;;;5014230;28;20122;-86
2021/10/26 12:35:53;;;;;;;7.03;3.33;;;15.70;95.20;;;;;;5011057;28;20084;-86
2021/10/26 12:38:37;;;;;;;9.23;3.17;;;16.60;93.90;;;;;;5019269;28;20025;-88
2021/10/26 12:41:24;;;;;;;5.35;2.67;;;16.60;93.10;;;;;;5045869;28;20032;-90
2021/10/26 12:44:05;;;;;;;6.82;2.50;;;16.20;93.90;;;;;;5026548;28;20044;-75
2021/10/26 12:46:32;;;;;;;4.45;2.95;;;16.20;94.10;;;;;;5028216;28;20559;-79
2021/10/26 12:49:33;;;;;;;9.32;3.15;;;16.70;93.10;;;;;;5013459;28;20037;-76
2021/10/26 12:52:12;;;;;;;10.20;2.83;;;16.80;92.60;;;;;;5011912;28;20084;-78
2021/10/26 12:54:38;;;;;;;5.05;2.80;;;16.50;93.30;;;;;;5011094;28;20436;-78
2021/10/26 12:57:04;;;;;;;7.70;3.22;;;16.80;93.30;;;;;;5015559;28;20092;-78
2021/10/26 12:59:31;;;;;;;5.57;2.92;;;16.50;93.20;;;;;;5011807;28;20494;-77